createdAt,value
2019-06-13T00:00:20.571Z,326.80
2019-06-13T00:01:20.626Z,212.70
2019-06-13T00:02:20.669Z,180.10
2019-06-13T00:03:20.726Z,206.30
2019-06-13T00:04:20.819Z,247.20
2019-06-13T00:05:20.798Z,303.40
2019-06-13T00:06:21.026Z,169.80
2019-06-13T00:07:20.912Z,171.10
2019-06-13T00:08:20.934Z,340.40
2019-06-13T00:09:20.988Z,332.60
2019-06-13T00:10:21.046Z,287.40
2019-06-13T00:11:21.074Z,264.90
2019-06-13T00:12:21.124Z,262.10
2019-06-13T00:13:21.144Z,213.00
2019-06-13T00:14:21.208Z,244.10
2019-06-13T00:15:21.251Z,133.50
2019-06-13T00:16:21.316Z,271.70
2019-06-13T00:17:21.363Z,255.40
2019-06-13T00:18:21.396Z,423.30
2019-06-13T00:19:21.476Z,576.50
2019-06-13T00:20:21.502Z,705.40
2019-06-13T00:21:21.520Z,778.10
2019-06-13T00:22:21.571Z,831.40
2019-06-13T00:23:21.613Z,713.70
2019-06-13T00:24:21.637Z,693.20
2019-06-13T00:25:21.678Z,625.50
2019-06-13T00:26:21.743Z,715.80
2019-06-13T00:27:21.803Z,731.10
2019-06-13T00:28:21.817Z,820.70
2019-06-13T00:29:21.891Z,854.20
2019-06-13T00:30:21.953Z,765.90
2019-06-13T00:31:21.984Z,720.60
2019-06-13T00:32:22.004Z,687.50
2019-06-13T00:33:22.056Z,602.30
2019-06-13T00:34:22.111Z,638.10
2019-06-13T00:35:22.174Z,491.30
2019-06-13T00:36:22.175Z,370.80
2019-06-13T00:37:22.250Z,395.00
2019-06-13T00:38:22.297Z,384.80
2019-06-13T00:39:22.312Z,275.80
2019-06-13T00:40:22.384Z,299.10
2019-06-13T00:41:22.403Z,453.20
2019-06-13T00:42:22.458Z,302.90
2019-06-13T00:43:22.511Z,272.50
2019-06-13T00:44:22.545Z,286.60
2019-06-13T00:45:22.598Z,299.70
2019-06-13T00:46:22.674Z,248.40
2019-06-13T00:47:22.680Z,329.30
2019-06-13T00:48:22.743Z,344.80
2019-06-13T00:49:22.773Z,325.40
2019-06-13T00:50:22.817Z,293.90
2019-06-13T00:51:22.849Z,293.80
2019-06-13T00:52:22.931Z,322.60
2019-06-13T00:53:22.938Z,482.70
2019-06-13T00:54:22.968Z,301.00
2019-06-13T00:55:23.034Z,376.70
2019-06-13T00:56:23.086Z,396.80
2019-06-13T00:57:23.155Z,400.50
2019-06-13T00:58:23.183Z,339.30
2019-06-13T00:59:23.223Z,235.90
2019-06-13T01:00:23.274Z,237.00
2019-06-13T01:01:23.305Z,234.00
2019-06-13T01:02:23.350Z,217.50
2019-06-13T01:03:23.384Z,269.10
2019-06-13T01:04:23.437Z,268.20
2019-06-13T01:05:23.504Z,267.00
2019-06-13T01:06:25.992Z,543.00
2019-06-13T01:07:23.627Z,264.30
2019-06-13T01:08:23.626Z,203.60
2019-06-13T01:09:23.657Z,213.60
2019-06-13T01:10:23.697Z,224.50
2019-06-13T01:11:23.744Z,237.50
2019-06-13T01:12:23.792Z,245.90
2019-06-13T01:13:23.903Z,304.00
2019-06-13T01:14:23.872Z,629.40
2019-06-13T01:15:23.918Z,413.90
2019-06-13T01:16:24.015Z,386.40
2019-06-13T01:17:24.024Z,269.70
2019-06-13T01:18:24.061Z,246.00
2019-06-13T01:19:24.116Z,247.70
2019-06-13T01:20:24.178Z,250.60
2019-06-13T01:21:24.241Z,285.60
2019-06-13T01:22:24.247Z,248.70
2019-06-13T01:23:24.275Z,201.90
2019-06-13T01:24:24.331Z,218.20
2019-06-13T01:25:24.427Z,233.00
2019-06-13T01:26:24.428Z,336.70
2019-06-13T01:27:24.463Z,510.30
2019-06-13T01:28:24.487Z,408.80
2019-06-13T01:29:24.550Z,445.50
2019-06-13T01:30:24.642Z,482.30
2019-06-13T01:31:24.617Z,285.00
2019-06-13T01:32:24.724Z,338.50
2019-06-13T01:33:24.735Z,497.60
2019-06-13T01:34:24.786Z,350.30
2019-06-13T01:35:24.816Z,361.20
2019-06-13T01:36:39.350Z,324.10
2019-06-13T01:37:24.923Z,354.20
2019-06-13T01:38:24.989Z,399.30
2019-06-13T01:39:25.064Z,355.40
2019-06-13T01:40:25.099Z,328.30
2019-06-13T01:41:25.263Z,325.50
2019-06-13T01:42:25.180Z,294.50
2019-06-13T01:43:25.162Z,354.10
2019-06-13T01:44:25.221Z,419.10
2019-06-13T01:45:25.291Z,471.00
2019-06-13T01:46:25.287Z,561.60
2019-06-13T01:47:25.350Z,601.80
2019-06-13T01:48:32.480Z,635.70
2019-06-13T01:49:25.479Z,343.70
2019-06-13T01:50:25.479Z,764.00
2019-06-13T01:51:25.524Z,648.40
2019-06-13T01:52:25.575Z,598.60
2019-06-13T01:53:25.604Z,607.80
2019-06-13T01:54:25.676Z,654.00
2019-06-13T01:55:25.705Z,615.20
2019-06-13T01:56:25.745Z,594.30
2019-06-13T01:57:25.790Z,260.60
2019-06-13T01:58:25.863Z,276.70
2019-06-13T01:59:25.847Z,252.00
2019-06-13T02:00:34.762Z,241.80
2019-06-13T02:01:25.950Z,339.30
2019-06-13T02:02:26.011Z,454.90
2019-06-13T02:03:26.056Z,217.80
2019-06-13T02:04:26.111Z,578.50
2019-06-13T02:05:28.643Z,252.10
2019-06-13T02:06:26.180Z,242.00
2019-06-13T02:07:28.740Z,234.60
2019-06-13T02:08:28.887Z,236.50
2019-06-13T02:09:26.324Z,656.40
2019-06-13T02:10:28.819Z,678.40
2019-06-13T02:11:26.416Z,357.40
2019-06-13T02:12:29.151Z,665.30
2019-06-13T02:13:26.518Z,581.00
2019-06-13T02:14:29.044Z,462.30
2019-06-13T02:15:29.562Z,524.90
2019-06-13T02:16:26.631Z,630.30
2019-06-13T02:17:26.694Z,587.80
2019-06-13T02:18:28.455Z,601.60
2019-06-13T02:19:26.769Z,607.50
2019-06-13T02:20:29.438Z,622.20
2019-06-13T02:21:28.920Z,589.10
2019-06-13T02:22:29.472Z,359.70
2019-06-13T02:23:29.175Z,302.60
2019-06-13T02:24:29.389Z,312.50
2019-06-13T02:25:29.406Z,313.20
2019-06-13T02:26:28.665Z,327.60
2019-06-13T02:27:29.467Z,291.80
2019-06-13T02:28:29.846Z,226.70
2019-06-13T02:29:29.376Z,238.90
2019-06-13T02:30:30.833Z,211.70
2019-06-13T02:31:27.279Z,248.60
2019-06-13T02:32:31.513Z,499.30
2019-06-13T02:33:30.844Z,360.40
2019-06-13T02:34:30.241Z,238.90
2019-06-13T02:35:30.924Z,118.30
2019-06-13T02:36:30.617Z,84.60
2019-06-13T02:37:34.268Z,81.60
2019-06-13T02:38:30.307Z,89.60
2019-06-13T02:39:30.594Z,75.30
2019-06-13T02:40:30.170Z,94.10
2019-06-13T02:41:30.656Z,302.20
2019-06-13T02:42:30.011Z,253.90
2019-06-13T02:43:30.614Z,466.00
2019-06-13T02:44:30.370Z,513.40
2019-06-13T07:35:33.183Z,325.30
2019-06-13T07:37:09.815Z,393.70
2019-06-13T07:38:09.442Z,303.80
2019-06-13T07:39:09.997Z,306.80
2019-06-13T07:40:18.643Z,330.70
2019-06-13T07:41:09.969Z,504.00
2019-06-13T07:42:09.883Z,549.10
2019-06-13T07:43:09.873Z,513.10
2019-06-13T07:44:14.061Z,221.40
2019-06-13T07:45:10.100Z,211.50
2019-06-13T07:46:10.011Z,331.80
2019-06-13T07:47:10.320Z,289.60
2019-06-13T07:48:12.470Z,350.40
2019-06-13T07:49:09.736Z,173.40
2019-06-13T07:50:10.251Z,176.20
2019-06-13T07:51:10.193Z,199.70
2019-06-13T07:52:10.019Z,121.60
2019-06-13T07:53:09.882Z,154.70
2019-06-13T07:54:10.173Z,314.40
2019-06-13T07:55:11.634Z,418.20
2019-06-13T07:56:09.949Z,608.40
2019-06-13T07:57:10.014Z,773.70
2019-06-13T07:58:10.062Z,846.30
2019-06-13T07:59:10.115Z,837.00
2019-06-13T08:00:10.151Z,847.30
2019-06-13T08:01:11.849Z,818.00
2019-06-13T08:02:10.634Z,793.90
2019-06-13T08:03:10.367Z,802.70
2019-06-13T08:04:11.094Z,836.70
2019-06-13T08:05:10.425Z,805.50
2019-06-13T08:06:10.389Z,767.30
2019-06-13T08:07:10.420Z,746.20
2019-06-13T08:08:10.464Z,741.00
2019-06-13T08:09:10.518Z,800.50
2019-06-13T08:10:12.425Z,770.20
2019-06-13T08:11:10.614Z,764.30
2019-06-13T08:12:10.651Z,827.80
2019-06-13T08:13:10.812Z,875.90
2019-06-13T08:14:10.721Z,843.20
2019-06-13T08:15:10.812Z,819.20
2019-06-13T08:16:25.893Z,812.80
2019-06-13T08:17:11.059Z,826.90
2019-06-13T08:18:10.903Z,789.70
2019-06-13T08:19:10.946Z,764.60
2019-06-13T08:20:10.982Z,724.00
2019-06-13T08:21:11.011Z,735.30
2019-06-13T08:22:11.446Z,726.50
2019-06-13T08:23:18.453Z,781.50
2019-06-13T08:24:11.146Z,708.80
2019-06-13T08:25:11.186Z,695.40
2019-06-13T08:26:13.163Z,677.70
2019-06-13T08:27:11.322Z,685.90
2019-06-13T08:28:11.329Z,701.40
2019-06-13T08:29:11.357Z,668.50
2019-06-13T08:30:11.415Z,833.60
2019-06-13T08:31:11.504Z,889.80
2019-06-13T08:32:11.479Z,836.90
2019-06-13T08:33:11.556Z,807.60
2019-06-13T08:34:11.566Z,801.90
2019-06-13T08:35:11.606Z,821.90
2019-06-13T08:36:11.653Z,742.30
2019-06-13T08:37:12.589Z,641.80
2019-06-13T08:38:11.733Z,612.70
2019-06-13T08:39:11.788Z,647.60
2019-06-13T08:40:11.808Z,726.20
2019-06-13T08:41:20.193Z,746.20
2019-06-13T08:42:11.900Z,644.70
2019-06-13T08:43:15.490Z,570.10
2019-06-13T08:44:12.010Z,539.20
2019-06-13T08:45:12.020Z,494.00
2019-06-13T08:46:12.074Z,579.40
2019-06-13T08:47:12.118Z,571.50
2019-06-13T08:48:12.169Z,581.60
2019-06-13T08:49:16.361Z,588.30
2019-06-13T08:50:12.264Z,512.90
2019-06-13T08:51:12.284Z,646.00
2019-06-13T08:52:12.337Z,494.60
2019-06-13T08:53:12.386Z,632.50
2019-06-13T08:54:12.425Z,690.60
2019-06-13T08:55:12.448Z,598.80
2019-06-13T08:56:12.492Z,451.40
2019-06-13T08:57:12.562Z,558.00
2019-06-13T08:58:12.592Z,565.20
2019-06-13T08:59:12.642Z,476.70
2019-06-13T09:00:12.670Z,526.50
2019-06-13T09:01:12.693Z,563.50
2019-06-13T09:02:12.735Z,445.50
2019-06-13T09:03:12.812Z,504.80
2019-06-13T09:04:12.825Z,460.40
2019-06-13T09:05:12.874Z,547.10
2019-06-13T09:06:15.169Z,665.30
2019-06-13T09:07:12.952Z,363.60
2019-06-13T09:08:15.858Z,478.60
2019-06-13T09:09:13.058Z,540.90
2019-06-13T09:10:13.090Z,519.80
2019-06-13T09:11:27.184Z,468.70
2019-06-13T09:12:13.159Z,519.30
2019-06-13T09:13:13.189Z,459.50
2019-06-13T09:14:13.272Z,436.20
2019-06-13T09:15:13.289Z,581.70
2019-06-13T09:16:13.337Z,520.60
2019-06-13T09:17:13.397Z,459.80
2019-06-13T09:18:13.433Z,411.80
2019-06-13T09:19:13.454Z,388.60
2019-06-13T09:20:13.541Z,447.60
2019-06-13T09:21:13.557Z,364.90
2019-06-13T09:22:13.581Z,549.80
2019-06-13T09:23:13.643Z,486.50
2019-06-13T09:24:13.665Z,487.70
2019-06-13T09:25:13.712Z,540.80
2019-06-13T09:26:13.769Z,446.70
2019-06-13T09:27:13.794Z,496.70
2019-06-13T09:28:13.842Z,569.20
2019-06-13T09:29:13.899Z,573.90
2019-06-13T09:30:13.991Z,385.20
2019-06-13T09:31:13.972Z,623.60
2019-06-13T09:32:14.012Z,507.10
2019-06-13T09:33:19.969Z,411.20
2019-06-13T09:34:14.991Z,358.30
2019-06-13T09:35:14.130Z,401.30
2019-06-13T09:36:14.160Z,456.00
2019-06-13T09:37:14.218Z,441.00
2019-06-13T09:38:14.255Z,545.50
2019-06-13T09:39:22.286Z,436.40
2019-06-13T09:40:14.349Z,489.60
2019-06-13T09:41:14.397Z,498.60
2019-06-13T09:42:22.335Z,368.20
2019-06-13T09:43:14.479Z,743.90
2019-06-13T09:44:14.505Z,437.90
2019-06-13T09:45:14.541Z,371.40
2019-06-13T09:46:14.592Z,420.90
2019-06-13T09:47:14.626Z,388.70
2019-06-13T09:48:14.677Z,421.10
2019-06-13T09:49:14.771Z,443.60
2019-06-13T09:50:14.764Z,402.10
2019-06-13T09:51:14.802Z,515.60
2019-06-13T09:52:14.875Z,392.40
2019-06-13T09:53:14.883Z,433.70
2019-06-13T09:54:14.928Z,415.00
2019-06-13T09:55:16.219Z,406.30
2019-06-13T09:56:15.008Z,402.40
2019-06-13T09:57:15.070Z,413.60
2019-06-13T09:58:15.090Z,435.10
2019-06-13T09:59:15.142Z,387.30
2019-06-13T10:00:23.674Z,469.20
2019-06-13T10:01:15.217Z,455.60
2019-06-13T10:02:15.248Z,425.20
2019-06-13T10:03:15.299Z,439.00
2019-06-13T10:04:15.351Z,475.40
2019-06-13T10:05:15.388Z,412.90
2019-06-13T10:06:20.661Z,394.50
2019-06-13T10:07:15.492Z,496.10
2019-06-13T10:08:15.524Z,458.80
2019-06-13T10:09:15.604Z,607.50
2019-06-13T10:10:15.623Z,393.40
2019-06-13T10:11:15.639Z,535.80
2019-06-13T10:12:34.144Z,423.30
2019-06-13T10:13:15.720Z,377.80
2019-06-13T10:14:15.756Z,377.50
2019-06-13T10:15:15.839Z,297.40
2019-06-13T10:16:15.850Z,563.30
2019-06-13T10:17:15.904Z,401.00
2019-06-13T10:18:16.710Z,479.70
2019-06-13T10:19:15.990Z,484.30
2019-06-13T10:20:27.707Z,346.60
2019-06-13T10:21:16.092Z,356.20
2019-06-13T10:22:17.382Z,308.60
2019-06-13T10:23:16.141Z,328.20
2019-06-13T10:24:42.009Z,306.60
2019-06-13T10:25:16.255Z,252.90
2019-06-13T10:26:23.071Z,325.50
2019-06-13T10:27:18.793Z,259.40
2019-06-13T10:28:16.372Z,333.40
2019-06-13T10:29:16.744Z,303.10
2019-06-13T10:30:16.498Z,260.10
2019-06-13T10:31:20.100Z,314.70
2019-06-13T10:32:16.542Z,280.00
2019-06-13T10:33:16.556Z,243.00
2019-06-13T10:34:19.861Z,260.80
2019-06-13T10:35:16.661Z,280.90
2019-06-13T10:36:16.685Z,310.30
2019-06-13T10:37:19.340Z,354.80
2019-06-13T10:38:37.282Z,351.00
2019-06-13T10:39:16.838Z,318.60
2019-06-13T10:40:20.095Z,338.60
2019-06-13T10:41:20.476Z,351.80
2019-06-13T10:42:19.185Z,329.10
2019-06-13T10:43:21.106Z,347.20
2019-06-13T10:44:18.946Z,335.30
2019-06-13T10:45:17.070Z,363.60
2019-06-13T10:46:17.125Z,295.00
2019-06-13T10:47:20.220Z,283.70
2019-06-13T10:48:20.183Z,303.30
2019-06-13T10:49:19.919Z,257.90
2019-06-13T10:50:19.825Z,370.20
2019-06-13T10:51:21.747Z,331.30
2019-06-13T10:52:19.646Z,356.60
2019-06-13T10:53:25.027Z,337.30
2019-06-13T10:54:19.692Z,321.40
2019-06-13T10:55:20.135Z,387.20
2019-06-13T10:56:19.920Z,357.00
2019-06-13T10:57:27.580Z,349.70
2019-06-13T10:58:20.105Z,343.80
2019-06-13T10:59:17.675Z,323.50
2019-06-13T11:00:20.083Z,359.80
2019-06-13T11:01:20.439Z,338.20
2019-06-13T11:02:19.806Z,415.20
2019-06-13T11:03:17.866Z,423.10
2019-06-13T11:04:22.680Z,419.60
2019-06-13T11:05:19.791Z,465.60
2019-06-13T11:06:25.550Z,587.40
2019-06-13T11:07:19.565Z,639.40
2019-06-13T11:08:20.308Z,592.60
2019-06-13T11:09:18.925Z,635.40
2019-06-13T11:10:20.349Z,559.50
2019-06-13T11:11:19.908Z,550.60
2019-06-13T11:12:19.747Z,546.30
2019-06-13T11:13:19.397Z,806.70
2019-06-13T11:14:19.161Z,598.90
2019-06-13T11:15:18.402Z,629.80
2019-06-13T11:16:21.484Z,599.20
2019-06-13T11:17:38.737Z,527.50
2019-06-13T11:18:18.521Z,594.80
2019-06-13T11:19:20.699Z,601.00
2019-06-13T11:20:20.189Z,548.50
2019-06-13T11:21:20.578Z,598.50
2019-06-13T11:22:21.170Z,570.00
2019-06-13T11:23:20.246Z,525.90
2019-06-13T11:24:20.321Z,516.50
2019-06-13T11:25:19.389Z,541.10
2019-06-13T11:26:18.943Z,486.00
2019-06-13T11:27:18.996Z,516.30
2019-06-13T11:28:19.754Z,448.70
2019-06-13T11:29:19.603Z,437.30
2019-06-13T11:30:20.445Z,430.30
2019-06-13T11:31:19.208Z,430.90
2019-06-13T11:32:19.499Z,424.70
2019-06-13T11:33:19.268Z,461.40
2019-06-13T11:34:19.880Z,462.80
2019-06-13T11:35:20.638Z,450.70
2019-06-13T11:36:19.804Z,431.30
2019-06-13T11:37:20.070Z,376.50
2019-06-13T11:38:19.832Z,383.70
2019-06-13T11:39:20.061Z,435.40
2019-06-13T11:40:29.691Z,354.00
2019-06-13T11:41:19.889Z,398.10
2019-06-13T11:42:20.436Z,325.60
2019-06-13T11:43:34.285Z,350.30
2019-06-13T11:44:20.688Z,415.20
2019-06-13T11:45:21.117Z,407.50
2019-06-13T11:46:20.621Z,389.20
2019-06-13T11:47:20.173Z,545.90
2019-06-13T11:48:20.081Z,698.40
2019-06-13T11:49:20.762Z,501.80
2019-06-13T11:50:20.450Z,702.30
2019-06-13T11:51:21.273Z,427.80
2019-06-13T11:52:20.244Z,415.60
2019-06-13T11:53:21.247Z,436.20
2019-06-13T11:54:20.365Z,379.60
2019-06-13T11:55:20.396Z,402.10
2019-06-13T11:56:20.943Z,449.80
2019-06-13T11:57:20.507Z,432.70
2019-06-13T11:58:25.330Z,504.80
2019-06-13T11:59:20.606Z,637.80
2019-06-13T12:00:31.451Z,416.00
2019-06-13T12:01:20.705Z,534.80
2019-06-13T12:02:20.805Z,534.20
2019-06-13T12:03:21.417Z,562.90
2019-06-13T12:04:20.848Z,252.40
2019-06-13T12:05:20.927Z,558.40
2019-06-13T12:06:22.238Z,543.10
2019-06-13T12:07:21.021Z,635.40
2019-06-13T12:08:21.145Z,605.60
2019-06-13T12:09:21.122Z,706.90
2019-06-13T12:10:21.430Z,549.60
2019-06-13T12:11:21.261Z,609.80
2019-06-13T12:12:25.145Z,541.20
2019-06-13T12:13:21.310Z,658.60
2019-06-13T12:14:21.897Z,847.10
2019-06-13T12:15:21.450Z,729.10
2019-06-13T12:16:21.498Z,808.20
2019-06-13T12:17:24.514Z,941.10
2019-06-13T12:18:21.559Z,863.50
2019-06-13T12:19:21.657Z,754.80
2019-06-13T12:20:21.680Z,971.10
2019-06-13T12:21:21.728Z,760.30
2019-06-13T12:22:21.823Z,764.00
2019-06-13T12:23:21.833Z,867.20
2019-06-13T12:24:21.869Z,784.70
2019-06-13T12:25:21.957Z,867.40
2019-06-13T12:26:21.988Z,916.80
2019-06-13T12:27:22.183Z,845.90
2019-06-13T12:28:22.113Z,820.90
2019-06-13T12:29:22.174Z,852.30
2019-06-13T12:30:22.213Z,789.90
2019-06-13T12:31:22.259Z,801.20
2019-06-13T12:32:22.320Z,966.30
2019-06-13T12:33:22.390Z,919.40
2019-06-13T12:34:22.464Z,854.30
2019-06-13T12:35:22.455Z,948.40
2019-06-13T12:36:22.507Z,1019.30
2019-06-13T12:37:22.561Z,929.70
2019-06-13T12:38:22.640Z,982.40
2019-06-13T12:39:22.690Z,1134.10
2019-06-13T12:40:22.750Z,872.90
2019-06-13T12:41:22.789Z,892.30
2019-06-13T12:42:22.868Z,949.20
2019-06-13T12:43:22.921Z,937.50
2019-06-13T12:44:29.550Z,1054.50
2019-06-13T12:45:22.984Z,1025.90
2019-06-13T12:46:23.057Z,912.80
2019-06-13T12:47:23.111Z,854.30
2019-06-13T12:48:23.207Z,959.80
2019-06-13T12:49:23.226Z,857.90
2019-06-13T12:50:23.246Z,829.10
2019-06-13T12:51:24.535Z,844.50
2019-06-13T12:52:23.361Z,854.10
2019-06-13T12:53:23.411Z,893.40
2019-06-13T12:54:23.496Z,931.40
2019-06-13T12:55:23.525Z,825.50
2019-06-13T12:56:23.586Z,902.40
2019-06-13T12:57:23.626Z,904.80
2019-06-13T12:58:23.681Z,778.00
2019-06-13T12:59:23.740Z,731.90
2019-06-13T13:00:23.875Z,942.80
2019-06-13T13:01:23.843Z,756.80
2019-06-13T13:02:23.882Z,670.10
2019-06-13T13:03:23.974Z,810.60
2019-06-13T13:04:24.007Z,706.60
2019-06-13T13:05:24.074Z,761.70
2019-06-13T13:06:24.124Z,761.90
2019-06-13T13:07:24.158Z,778.10
2019-06-13T13:08:24.203Z,794.20
2019-06-13T13:09:24.276Z,758.70
2019-06-13T13:10:24.355Z,771.10
2019-06-13T13:11:24.377Z,793.60
2019-06-13T13:12:24.452Z,735.60
2019-06-13T13:13:24.498Z,644.10
2019-06-13T13:14:38.840Z,650.00
2019-06-13T13:15:24.607Z,845.60
2019-06-13T13:16:24.644Z,706.40
2019-06-13T13:17:27.034Z,731.60
2019-06-13T13:18:24.773Z,818.60
2019-06-13T13:19:24.823Z,593.10
2019-06-13T13:20:24.975Z,586.50
2019-06-13T13:21:24.951Z,634.90
2019-06-13T13:22:24.999Z,601.40
2019-06-13T13:23:25.029Z,597.60
2019-06-13T13:24:25.095Z,561.60
2019-06-13T13:25:25.151Z,551.30
2019-06-13T13:26:25.219Z,633.80
2019-06-13T13:27:25.266Z,644.20
2019-06-13T13:28:25.317Z,529.90
2019-06-13T13:29:25.380Z,509.10
2019-06-13T13:30:25.424Z,633.70
2019-06-13T13:31:25.488Z,528.00
2019-06-13T13:32:29.973Z,713.30
2019-06-13T13:33:25.581Z,695.50
2019-06-13T13:34:25.729Z,711.30
2019-06-13T13:35:25.700Z,747.70
2019-06-13T13:36:25.801Z,672.40
2019-06-13T13:37:25.819Z,687.00
2019-06-13T13:38:25.901Z,692.10
2019-06-13T13:39:25.916Z,561.00
2019-06-13T13:40:29.983Z,735.40
2019-06-13T13:41:26.019Z,626.70
2019-06-13T13:42:26.062Z,977.70
2019-06-13T13:43:26.149Z,748.70
2019-06-13T13:44:26.208Z,749.20
2019-06-13T13:45:30.018Z,736.70
2019-06-13T13:46:28.859Z,595.40
2019-06-13T13:47:26.347Z,732.80
2019-06-13T13:48:26.420Z,721.30
2019-06-13T13:49:26.456Z,899.90
2019-06-13T13:50:26.528Z,755.70
2019-06-13T13:51:26.584Z,771.10
2019-06-13T13:52:29.656Z,850.40
2019-06-13T13:53:31.006Z,941.90
2019-06-13T13:54:30.451Z,806.10
2019-06-13T13:55:29.222Z,868.00
2019-06-13T13:56:29.064Z,702.40
2019-06-13T13:57:26.936Z,843.40
2019-06-13T13:58:26.944Z,879.30
2019-06-13T13:59:27.024Z,880.10
2019-06-13T14:00:31.077Z,846.70
2019-06-13T14:01:29.796Z,955.90
2019-06-13T14:02:27.188Z,866.10
2019-06-13T14:03:30.144Z,807.00
2019-06-13T14:04:27.278Z,833.40
2019-06-13T14:05:27.410Z,857.10
2019-06-13T14:06:27.416Z,800.40
2019-06-13T14:07:29.867Z,801.10
2019-06-13T14:08:29.613Z,819.70
2019-06-13T14:09:29.649Z,711.80
2019-06-13T14:10:29.955Z,755.30
2019-06-13T14:11:27.665Z,843.30
2019-06-13T14:12:30.156Z,867.40
2019-06-13T14:13:29.438Z,818.00
2019-06-13T14:14:29.554Z,837.70
2019-06-13T14:15:37.142Z,859.90
2019-06-13T14:16:30.124Z,824.60
2019-06-13T14:17:31.361Z,761.20
2019-06-13T14:18:36.410Z,807.80
2019-06-13T14:19:31.744Z,776.20
2019-06-13T14:20:29.944Z,770.50
2019-06-13T14:21:29.567Z,871.10
2019-06-13T14:22:29.888Z,822.00
2019-06-13T14:23:35.841Z,630.60
2019-06-13T14:24:30.129Z,707.30
2019-06-13T14:25:32.933Z,718.80
2019-06-13T14:26:29.791Z,700.50
2019-06-13T14:27:29.416Z,622.60
2019-06-13T14:28:30.464Z,695.10
2019-06-13T14:29:29.512Z,711.60
2019-06-13T14:30:36.522Z,820.70
2019-06-13T14:31:29.248Z,734.30
2019-06-13T14:32:30.010Z,567.00
2019-06-13T14:33:30.207Z,657.00
2019-06-13T14:34:30.212Z,717.30
2019-06-13T14:35:29.474Z,645.90
2019-06-13T14:36:29.977Z,713.00
2019-06-13T14:37:29.907Z,679.30
2019-06-13T14:38:30.235Z,657.60
2019-06-13T14:39:30.066Z,660.60
2019-06-13T14:40:29.827Z,656.90
2019-06-13T14:41:29.865Z,632.80
2019-06-13T14:42:30.448Z,591.20
2019-06-13T14:43:29.751Z,530.70
2019-06-13T14:44:30.115Z,579.10
2019-06-13T14:45:44.395Z,523.90
2019-06-13T14:46:29.647Z,502.70
2019-06-13T14:47:29.696Z,550.50
2019-06-13T14:48:37.498Z,503.50
2019-06-13T14:49:29.784Z,435.70
2019-06-13T14:50:29.849Z,490.40
2019-06-13T14:51:29.901Z,353.60
2019-06-13T14:52:29.975Z,368.20
2019-06-13T14:53:30.020Z,423.10
2019-06-13T14:54:31.338Z,386.00
2019-06-13T14:55:31.470Z,370.50
2019-06-13T14:56:30.193Z,322.40
2019-06-13T14:57:30.249Z,422.90
2019-06-13T14:58:30.306Z,271.40
2019-06-13T14:59:30.359Z,294.30
2019-06-13T15:00:30.570Z,431.40
2019-06-13T15:01:30.474Z,408.80
2019-06-13T15:02:30.660Z,523.30
2019-06-13T15:03:30.581Z,389.70
2019-06-13T15:04:30.665Z,323.70
2019-06-13T15:05:30.737Z,311.40
2019-06-13T15:06:30.751Z,530.40
2019-06-13T15:07:30.815Z,419.80
2019-06-13T15:08:31.679Z,342.90
2019-06-13T15:09:30.936Z,367.10
2019-06-13T15:10:30.988Z,441.90
2019-06-13T15:11:31.054Z,392.50
2019-06-13T15:12:31.106Z,278.90
2019-06-13T15:13:31.167Z,321.50
2019-06-13T15:14:31.294Z,234.50
2019-06-13T15:15:31.275Z,297.60
2019-06-13T15:16:31.343Z,373.40
2019-06-13T15:17:31.391Z,576.80
2019-06-13T15:18:31.439Z,360.60
2019-06-13T15:19:31.510Z,270.90
2019-06-13T15:20:31.539Z,311.10
2019-06-13T15:21:31.619Z,261.90
2019-06-13T15:22:31.661Z,349.70
2019-06-13T15:23:36.003Z,380.60
2019-06-13T15:24:31.772Z,668.70
2019-06-13T15:25:31.846Z,308.70
2019-06-13T15:26:31.935Z,383.20
2019-06-13T15:27:31.947Z,586.80
2019-06-13T15:28:31.989Z,307.80
2019-06-13T15:29:32.268Z,496.90
2019-06-13T15:30:32.111Z,567.10
2019-06-13T15:31:32.182Z,433.00
2019-06-13T15:32:32.212Z,545.80
2019-06-13T15:33:32.273Z,419.00
2019-06-13T15:34:32.335Z,442.30
2019-06-13T15:35:32.395Z,486.10
2019-06-13T15:36:32.443Z,370.20
2019-06-13T15:37:32.509Z,424.70
2019-06-13T15:38:32.559Z,448.80
2019-06-13T15:39:32.625Z,386.00
2019-06-13T15:40:32.669Z,360.70
2019-06-13T15:41:32.796Z,326.90
2019-06-13T15:42:32.829Z,357.40
2019-06-13T15:43:32.838Z,442.50
2019-06-13T15:44:32.901Z,419.40
2019-06-13T15:45:32.942Z,466.20
2019-06-13T15:46:39.039Z,663.20
2019-06-13T15:47:33.086Z,666.70
2019-06-13T15:48:33.150Z,697.90
2019-06-13T15:49:33.178Z,826.30
2019-06-13T15:50:33.227Z,881.20
2019-06-13T15:51:33.977Z,853.40
2019-06-13T15:52:33.368Z,964.90
2019-06-13T15:53:33.388Z,934.40
2019-06-13T15:54:33.445Z,906.90
2019-06-13T15:55:33.508Z,941.10
2019-06-13T15:56:33.548Z,1008.30
2019-06-13T15:57:33.707Z,1056.70
2019-06-13T15:58:33.672Z,963.60
2019-06-13T15:59:33.720Z,903.60
2019-06-13T16:00:33.760Z,889.60
2019-06-13T16:01:33.847Z,1105.90
2019-06-13T16:02:33.916Z,1116.50
2019-06-13T16:03:33.925Z,1052.20
2019-06-13T16:04:33.981Z,1014.30
2019-06-13T16:05:34.034Z,1031.40
2019-06-13T16:06:34.086Z,1119.40
2019-06-13T16:07:34.113Z,1083.00
2019-06-13T16:08:34.199Z,1080.40
2019-06-13T16:09:35.076Z,1035.90
2019-06-13T16:10:34.289Z,1107.20
2019-06-13T16:11:34.323Z,1125.50
2019-06-13T16:12:34.376Z,903.60
2019-06-13T16:13:34.443Z,1091.00
2019-06-13T16:14:34.513Z,977.30
2019-06-13T16:15:34.552Z,997.50
2019-06-13T16:16:49.230Z,1075.40
2019-06-13T16:17:34.646Z,1063.80
2019-06-13T16:18:34.718Z,1074.30
2019-06-13T16:19:34.761Z,1124.70
2019-06-13T16:20:34.800Z,1010.60
2019-06-13T16:21:34.861Z,1020.00
2019-06-13T16:22:34.905Z,1015.00
2019-06-13T16:23:34.976Z,1101.60
2019-06-13T16:24:35.003Z,887.90
2019-06-13T16:25:35.051Z,796.60
2019-06-13T16:26:35.119Z,837.60
2019-06-13T16:27:35.169Z,821.00
2019-06-13T16:28:35.224Z,943.00
2019-06-13T16:29:35.275Z,954.80
2019-06-13T16:30:35.312Z,1006.70
2019-06-13T16:31:35.501Z,924.70
2019-06-13T16:32:35.415Z,938.90
2019-06-13T16:33:35.476Z,977.40
2019-06-13T16:34:35.512Z,1027.90
2019-06-13T16:35:35.572Z,987.10
2019-06-13T16:36:35.632Z,1001.60
2019-06-13T16:37:35.666Z,989.00
2019-06-13T16:38:35.770Z,971.70
2019-06-13T16:39:35.779Z,1064.20
2019-06-13T16:40:35.828Z,1002.70
2019-06-13T16:41:35.885Z,925.20
2019-06-13T16:42:35.937Z,1057.40
2019-06-13T16:43:35.988Z,906.80
2019-06-13T16:44:36.038Z,937.70
2019-06-13T16:45:36.078Z,933.80
2019-06-13T16:46:36.112Z,873.20
2019-06-13T16:47:36.191Z,938.50
2019-06-13T16:48:36.253Z,927.10
2019-06-13T16:49:36.291Z,961.90
2019-06-13T16:50:36.348Z,967.90
2019-06-13T16:51:39.446Z,927.90
2019-06-13T16:52:36.444Z,843.20
2019-06-13T16:53:36.507Z,983.10
2019-06-13T16:54:38.754Z,1039.80
2019-06-13T16:55:36.572Z,940.80
2019-06-13T16:56:36.644Z,1021.90
2019-06-13T16:57:36.704Z,934.20
2019-06-13T16:58:36.740Z,930.80
2019-06-13T16:59:36.810Z,942.40
2019-06-13T17:00:39.821Z,957.60
2019-06-13T17:01:36.893Z,883.40
2019-06-13T17:02:40.459Z,924.30
2019-06-13T17:03:37.007Z,971.50
2019-06-13T17:04:39.613Z,943.00
2019-06-13T17:05:39.628Z,959.80
2019-06-13T17:06:39.552Z,952.20
2019-06-13T17:07:39.387Z,970.30
2019-06-13T17:08:39.601Z,898.50
2019-06-13T17:09:39.802Z,1021.30
2019-06-13T17:10:39.947Z,950.30
2019-06-13T17:11:39.633Z,922.70
2019-06-13T17:12:39.041Z,904.20
2019-06-13T17:13:39.623Z,903.40
2019-06-13T17:14:37.576Z,948.60
2019-06-13T17:15:40.595Z,889.60
2019-06-13T17:16:37.651Z,886.60
2019-06-13T17:17:39.116Z,911.70
2019-06-13T17:18:40.240Z,941.00